Search METAR Data

METAR Data for SLCP:

SLCP 241600Z 36004KT 9999 BKN017 30/24 Q1017